sensor_id;sensor_type;location;lat;lon;timestamp;P1;durP1;ratioP1;P2;durP2;ratioP2
6053;SDS011;3055;50.886;14.814;2023-08-24T00:00:25;6.07;;;5.57;;
6053;SDS011;3055;50.886;14.814;2023-08-24T00:02:52;5.87;;;5.27;;
6053;SDS011;3055;50.886;14.814;2023-08-24T00:05:19;5.30;;;4.80;;
6053;SDS011;3055;50.886;14.814;2023-08-24T00:07:47;5.67;;;5.17;;
6053;SDS011;3055;50.886;14.814;2023-08-24T00:10:15;5.80;;;5.30;;
6053;SDS011;3055;50.886;14.814;2023-08-24T00:12:43;8.60;;;6.10;;
6053;SDS011;3055;50.886;14.814;2023-08-24T00:15:10;6.67;;;5.97;;
6053;SDS011;3055;50.886;14.814;2023-08-24T00:17:38;6.63;;;5.93;;
6053;SDS011;3055;50.886;14.814;2023-08-24T00:20:06;7.70;;;5.83;;
6053;SDS011;3055;50.886;14.814;2023-08-24T00:22:36;6.97;;;6.27;;
6053;SDS011;3055;50.886;14.814;2023-08-24T00:25:03;6.57;;;5.87;;
6053;SDS011;3055;50.886;14.814;2023-08-24T00:27:33;8.27;;;6.10;;
6053;SDS011;3055;50.886;14.814;2023-08-24T00:30:00;6.47;;;5.87;;
6053;SDS011;3055;50.886;14.814;2023-08-24T00:32:28;8.30;;;6.83;;
6053;SDS011;3055;50.886;14.814;2023-08-24T00:34:59;7.67;;;7.00;;
6053;SDS011;3055;50.886;14.814;2023-08-24T00:37:26;8.50;;;6.37;;
6053;SDS011;3055;50.886;14.814;2023-08-24T00:39:54;6.90;;;6.17;;
6053;SDS011;3055;50.886;14.814;2023-08-24T00:42:21;6.63;;;5.97;;
6053;SDS011;3055;50.886;14.814;2023-08-24T00:44:50;6.23;;;5.73;;
6053;SDS011;3055;50.886;14.814;2023-08-24T00:47:17;7.40;;;5.70;;
6053;SDS011;3055;50.886;14.814;2023-08-24T00:49:45;8.50;;;5.80;;
6053;SDS011;3055;50.886;14.814;2023-08-24T00:52:12;8.60;;;6.63;;
6053;SDS011;3055;50.886;14.814;2023-08-24T00:54:39;7.30;;;6.43;;
6053;SDS011;3055;50.886;14.814;2023-08-24T00:57:07;7.90;;;6.90;;
6053;SDS011;3055;50.886;14.814;2023-08-24T00:59:35;9.27;;;7.00;;
6053;SDS011;3055;50.886;14.814;2023-08-24T01:02:03;7.90;;;7.10;;
6053;SDS011;3055;50.886;14.814;2023-08-24T01:04:31;7.43;;;6.60;;
6053;SDS011;3055;50.886;14.814;2023-08-24T01:06:58;7.27;;;6.57;;
6053;SDS011;3055;50.886;14.814;2023-08-24T01:09:25;6.70;;;6.10;;
6053;SDS011;3055;50.886;14.814;2023-08-24T01:11:54;6.60;;;5.53;;
6053;SDS011;3055;50.886;14.814;2023-08-24T01:14:30;6.00;;;5.47;;
6053;SDS011;3055;50.886;14.814;2023-08-24T01:17:04;7.23;;;5.37;;
6053;SDS011;3055;50.886;14.814;2023-08-24T01:19:36;7.13;;;6.53;;
6053;SDS011;3055;50.886;14.814;2023-08-24T01:22:05;7.57;;;6.83;;
6053;SDS011;3055;50.886;14.814;2023-08-24T01:24:40;7.57;;;6.87;;
6053;SDS011;3055;50.886;14.814;2023-08-24T01:27:15;8.03;;;6.87;;
6053;SDS011;3055;50.886;14.814;2023-08-24T01:33:05;6.73;;;5.87;;
6053;SDS011;3055;50.886;14.814;2023-08-24T01:35:36;6.90;;;6.27;;
6053;SDS011;3055;50.886;14.814;2023-08-24T01:38:04;7.20;;;5.73;;
6053;SDS011;3055;50.886;14.814;2023-08-24T01:40:33;7.47;;;6.73;;
6053;SDS011;3055;50.886;14.814;2023-08-24T01:43:07;7.63;;;6.23;;
6053;SDS011;3055;50.886;14.814;2023-08-24T01:45:36;7.10;;;6.50;;
6053;SDS011;3055;50.886;14.814;2023-08-24T01:48:06;7.83;;;7.23;;
6053;SDS011;3055;50.886;14.814;2023-08-24T01:50:35;7.73;;;6.93;;
6053;SDS011;3055;50.886;14.814;2023-08-24T01:53:03;7.87;;;7.13;;
6053;SDS011;3055;50.886;14.814;2023-08-24T01:55:30;8.23;;;7.13;;
6053;SDS011;3055;50.886;14.814;2023-08-24T01:57:57;7.87;;;7.17;;
6053;SDS011;3055;50.886;14.814;2023-08-24T02:00:27;7.63;;;6.93;;
6053;SDS011;3055;50.886;14.814;2023-08-24T02:02:54;6.97;;;6.37;;
6053;SDS011;3055;50.886;14.814;2023-08-24T02:05:21;7.97;;;6.53;;
6053;SDS011;3055;50.886;14.814;2023-08-24T02:07:52;7.87;;;7.00;;
6053;SDS011;3055;50.886;14.814;2023-08-24T02:10:20;8.33;;;7.50;;
6053;SDS011;3055;50.886;14.814;2023-08-24T02:12:47;8.07;;;7.37;;
6053;SDS011;3055;50.886;14.814;2023-08-24T02:15:14;7.77;;;7.17;;
6053;SDS011;3055;50.886;14.814;2023-08-24T02:17:42;7.57;;;6.90;;
6053;SDS011;3055;50.886;14.814;2023-08-24T02:20:10;7.63;;;6.83;;
6053;SDS011;3055;50.886;14.814;2023-08-24T02:22:37;8.73;;;7.63;;
6053;SDS011;3055;50.886;14.814;2023-08-24T02:25:05;6.90;;;6.00;;
6053;SDS011;3055;50.886;14.814;2023-08-24T02:27:33;11.90;;;6.07;;
6053;SDS011;3055;50.886;14.814;2023-08-24T02:30:00;5.77;;;5.27;;
6053;SDS011;3055;50.886;14.814;2023-08-24T02:32:27;6.20;;;5.60;;
6053;SDS011;3055;50.886;14.814;2023-08-24T02:34:55;6.67;;;5.40;;
6053;SDS011;3055;50.886;14.814;2023-08-24T02:37:22;6.30;;;5.70;;
6053;SDS011;3055;50.886;14.814;2023-08-24T02:39:49;7.13;;;5.50;;
6053;SDS011;3055;50.886;14.814;2023-08-24T02:42:16;6.70;;;6.10;;
6053;SDS011;3055;50.886;14.814;2023-08-24T02:44:43;7.07;;;6.47;;
6053;SDS011;3055;50.886;14.814;2023-08-24T02:47:11;7.47;;;6.10;;
6053;SDS011;3055;50.886;14.814;2023-08-24T02:49:38;8.03;;;6.43;;
6053;SDS011;3055;50.886;14.814;2023-08-24T02:52:06;6.70;;;6.00;;
6053;SDS011;3055;50.886;14.814;2023-08-24T02:54:33;6.37;;;5.87;;
6053;SDS011;3055;50.886;14.814;2023-08-24T02:57:00;6.30;;;5.80;;
6053;SDS011;3055;50.886;14.814;2023-08-24T02:59:28;6.60;;;6.00;;
6053;SDS011;3055;50.886;14.814;2023-08-24T03:01:55;6.63;;;6.00;;
6053;SDS011;3055;50.886;14.814;2023-08-24T03:04:22;7.17;;;6.47;;
6053;SDS011;3055;50.886;14.814;2023-08-24T03:06:50;7.17;;;6.53;;
6053;SDS011;3055;50.886;14.814;2023-08-24T03:09:18;7.70;;;7.10;;
6053;SDS011;3055;50.886;14.814;2023-08-24T03:11:45;7.47;;;6.77;;
6053;SDS011;3055;50.886;14.814;2023-08-24T03:14:12;8.53;;;7.63;;
6053;SDS011;3055;50.886;14.814;2023-08-24T03:16:39;7.67;;;6.87;;
6053;SDS011;3055;50.886;14.814;2023-08-24T03:19:07;8.07;;;7.03;;
6053;SDS011;3055;50.886;14.814;2023-08-24T03:21:34;7.67;;;6.83;;
6053;SDS011;3055;50.886;14.814;2023-08-24T03:24:01;8.60;;;7.80;;
6053;SDS011;3055;50.886;14.814;2023-08-24T03:26:30;8.77;;;7.90;;
6053;SDS011;3055;50.886;14.814;2023-08-24T03:28:58;9.27;;;8.43;;
6053;SDS011;3055;50.886;14.814;2023-08-24T03:31:25;9.47;;;8.53;;
6053;SDS011;3055;50.886;14.814;2023-08-24T03:33:52;9.73;;;8.87;;
6053;SDS011;3055;50.886;14.814;2023-08-24T03:36:19;9.57;;;8.63;;
6053;SDS011;3055;50.886;14.814;2023-08-24T03:38:46;9.33;;;8.57;;
6053;SDS011;3055;50.886;14.814;2023-08-24T03:41:13;10.00;;;9.10;;
6053;SDS011;3055;50.886;14.814;2023-08-24T03:43:42;9.13;;;8.40;;
6053;SDS011;3055;50.886;14.814;2023-08-24T03:46:09;10.20;;;9.07;;
6053;SDS011;3055;50.886;14.814;2023-08-24T03:48:36;9.73;;;8.77;;
6053;SDS011;3055;50.886;14.814;2023-08-24T03:51:03;9.87;;;8.97;;
6053;SDS011;3055;50.886;14.814;2023-08-24T03:53:30;10.57;;;9.63;;
6053;SDS011;3055;50.886;14.814;2023-08-24T03:55:57;9.10;;;8.30;;
6053;SDS011;3055;50.886;14.814;2023-08-24T03:58:24;10.53;;;9.13;;
6053;SDS011;3055;50.886;14.814;2023-08-24T04:00:53;9.97;;;9.07;;
6053;SDS011;3055;50.886;14.814;2023-08-24T04:03:20;10.87;;;9.87;;
6053;SDS011;3055;50.886;14.814;2023-08-24T04:05:47;10.03;;;8.97;;
6053;SDS011;3055;50.886;14.814;2023-08-24T04:08:14;8.30;;;7.60;;
6053;SDS011;3055;50.886;14.814;2023-08-24T04:10:43;7.90;;;6.90;;
6053;SDS011;3055;50.886;14.814;2023-08-24T04:13:10;7.13;;;6.53;;
6053;SDS011;3055;50.886;14.814;2023-08-24T04:15:37;7.50;;;6.90;;
6053;SDS011;3055;50.886;14.814;2023-08-24T04:18:05;7.73;;;7.03;;
6053;SDS011;3055;50.886;14.814;2023-08-24T04:20:32;7.80;;;7.03;;
6053;SDS011;3055;50.886;14.814;2023-08-24T04:23:00;7.83;;;7.07;;
6053;SDS011;3055;50.886;14.814;2023-08-24T04:25:28;7.77;;;6.97;;
6053;SDS011;3055;50.886;14.814;2023-08-24T04:27:55;8.20;;;7.10;;
6053;SDS011;3055;50.886;14.814;2023-08-24T04:30:22;7.43;;;6.73;;
6053;SDS011;3055;50.886;14.814;2023-08-24T04:32:50;7.73;;;6.87;;
6053;SDS011;3055;50.886;14.814;2023-08-24T04:35:18;7.80;;;6.70;;
6053;SDS011;3055;50.886;14.814;2023-08-24T04:37:45;7.60;;;6.77;;
6053;SDS011;3055;50.886;14.814;2023-08-24T04:40:12;7.53;;;6.77;;
6053;SDS011;3055;50.886;14.814;2023-08-24T04:42:39;7.87;;;6.97;;
6053;SDS011;3055;50.886;14.814;2023-08-24T04:45:07;6.80;;;6.30;;
6053;SDS011;3055;50.886;14.814;2023-08-24T04:47:34;7.47;;;6.87;;
6053;SDS011;3055;50.886;14.814;2023-08-24T04:50:01;8.47;;;7.67;;
6053;SDS011;3055;50.886;14.814;2023-08-24T04:52:31;7.67;;;6.97;;
6053;SDS011;3055;50.886;14.814;2023-08-24T04:55:00;10.27;;;7.10;;
6053;SDS011;3055;50.886;14.814;2023-08-24T04:57:28;10.50;;;6.70;;
6053;SDS011;3055;50.886;14.814;2023-08-24T04:59:55;7.50;;;6.80;;
6053;SDS011;3055;50.886;14.814;2023-08-24T05:02:22;6.30;;;5.67;;
6053;SDS011;3055;50.886;14.814;2023-08-24T05:04:49;7.27;;;6.13;;
6053;SDS011;3055;50.886;14.814;2023-08-24T05:07:16;6.50;;;5.90;;
6053;SDS011;3055;50.886;14.814;2023-08-24T05:09:45;6.40;;;5.90;;
6053;SDS011;3055;50.886;14.814;2023-08-24T05:12:12;6.40;;;5.90;;
6053;SDS011;3055;50.886;14.814;2023-08-24T05:14:39;6.03;;;5.53;;
6053;SDS011;3055;50.886;14.814;2023-08-24T05:17:06;6.23;;;5.63;;
6053;SDS011;3055;50.886;14.814;2023-08-24T05:19:33;7.80;;;7.07;;
6053;SDS011;3055;50.886;14.814;2023-08-24T05:22:01;6.83;;;5.93;;
6053;SDS011;3055;50.886;14.814;2023-08-24T05:24:28;7.17;;;6.43;;
6053;SDS011;3055;50.886;14.814;2023-08-24T05:26:56;7.23;;;5.67;;
6053;SDS011;3055;50.886;14.814;2023-08-24T05:29:23;6.23;;;5.47;;
6053;SDS011;3055;50.886;14.814;2023-08-24T05:31:50;6.80;;;5.80;;
6053;SDS011;3055;50.886;14.814;2023-08-24T05:34:17;8.43;;;5.80;;
6053;SDS011;3055;50.886;14.814;2023-08-24T05:36:44;5.77;;;5.27;;
6053;SDS011;3055;50.886;14.814;2023-08-24T05:39:11;5.67;;;5.17;;
6053;SDS011;3055;50.886;14.814;2023-08-24T05:41:39;6.33;;;5.30;;
6053;SDS011;3055;50.886;14.814;2023-08-24T05:44:07;7.53;;;5.30;;
6053;SDS011;3055;50.886;14.814;2023-08-24T05:46:34;7.03;;;6.40;;
6053;SDS011;3055;50.886;14.814;2023-08-24T05:49:01;6.47;;;5.83;;
6053;SDS011;3055;50.886;14.814;2023-08-24T05:51:28;5.10;;;4.70;;
6053;SDS011;3055;50.886;14.814;2023-08-24T05:53:58;5.50;;;4.70;;
6053;SDS011;3055;50.886;14.814;2023-08-24T05:56:26;5.10;;;4.47;;
6053;SDS011;3055;50.886;14.814;2023-08-24T05:58:53;5.40;;;4.93;;
6053;SDS011;3055;50.886;14.814;2023-08-24T06:01:22;5.40;;;4.83;;
6053;SDS011;3055;50.886;14.814;2023-08-24T06:03:49;6.67;;;5.67;;
6053;SDS011;3055;50.886;14.814;2023-08-24T06:06:16;6.80;;;4.67;;
6053;SDS011;3055;50.886;14.814;2023-08-24T06:08:43;4.30;;;3.90;;
6053;SDS011;3055;50.886;14.814;2023-08-24T06:11:10;5.77;;;4.37;;
6053;SDS011;3055;50.886;14.814;2023-08-24T06:13:37;7.43;;;4.70;;
6053;SDS011;3055;50.886;14.814;2023-08-24T06:16:06;7.10;;;4.80;;
6053;SDS011;3055;50.886;14.814;2023-08-24T06:18:34;6.20;;;4.77;;
6053;SDS011;3055;50.886;14.814;2023-08-24T06:21:01;6.47;;;4.37;;
6053;SDS011;3055;50.886;14.814;2023-08-24T06:23:28;4.63;;;4.23;;
6053;SDS011;3055;50.886;14.814;2023-08-24T06:25:55;6.60;;;4.70;;
6053;SDS011;3055;50.886;14.814;2023-08-24T06:28:22;5.83;;;4.67;;
6053;SDS011;3055;50.886;14.814;2023-08-24T06:30:50;5.13;;;4.63;;
6053;SDS011;3055;50.886;14.814;2023-08-24T06:33:17;5.47;;;4.87;;
6053;SDS011;3055;50.886;14.814;2023-08-24T06:35:46;7.80;;;5.50;;
6053;SDS011;3055;50.886;14.814;2023-08-24T06:38:13;5.20;;;4.80;;
6053;SDS011;3055;50.886;14.814;2023-08-24T06:40:40;5.27;;;4.43;;
6053;SDS011;3055;50.886;14.814;2023-08-24T06:43:07;4.87;;;4.43;;
6053;SDS011;3055;50.886;14.814;2023-08-24T06:45:34;7.63;;;4.57;;
6053;SDS011;3055;50.886;14.814;2023-08-24T06:48:01;4.93;;;4.13;;
6053;SDS011;3055;50.886;14.814;2023-08-24T06:50:29;4.90;;;4.50;;
6053;SDS011;3055;50.886;14.814;2023-08-24T06:52:57;4.00;;;3.70;;
6053;SDS011;3055;50.886;14.814;2023-08-24T06:55:25;4.87;;;4.47;;
6053;SDS011;3055;50.886;14.814;2023-08-24T06:57:53;4.20;;;3.90;;
6053;SDS011;3055;50.886;14.814;2023-08-24T07:00:20;6.37;;;4.00;;
6053;SDS011;3055;50.886;14.814;2023-08-24T07:02:48;4.70;;;3.50;;
6053;SDS011;3055;50.886;14.814;2023-08-24T07:05:16;4.80;;;3.63;;
6053;SDS011;3055;50.886;14.814;2023-08-24T07:07:44;5.70;;;3.80;;
6053;SDS011;3055;50.886;14.814;2023-08-24T07:10:13;3.83;;;3.50;;
6053;SDS011;3055;50.886;14.814;2023-08-24T07:12:41;5.50;;;3.77;;
6053;SDS011;3055;50.886;14.814;2023-08-24T07:15:10;4.07;;;3.10;;
6053;SDS011;3055;50.886;14.814;2023-08-24T07:17:39;4.23;;;3.83;;
6053;SDS011;3055;50.886;14.814;2023-08-24T07:20:07;6.87;;;4.03;;
6053;SDS011;3055;50.886;14.814;2023-08-24T07:22:35;4.40;;;3.50;;
6053;SDS011;3055;50.886;14.814;2023-08-24T07:25:04;3.93;;;3.10;;
6053;SDS011;3055;50.886;14.814;2023-08-24T07:27:33;4.67;;;4.00;;
6053;SDS011;3055;50.886;14.814;2023-08-24T07:30:02;4.70;;;3.53;;
6053;SDS011;3055;50.886;14.814;2023-08-24T07:32:31;4.13;;;3.73;;
6053;SDS011;3055;50.886;14.814;2023-08-24T07:34:58;7.13;;;4.13;;
6053;SDS011;3055;50.886;14.814;2023-08-24T07:37:26;7.30;;;4.17;;
6053;SDS011;3055;50.886;14.814;2023-08-24T07:39:53;5.67;;;3.53;;
6053;SDS011;3055;50.886;14.814;2023-08-24T07:42:20;4.23;;;3.00;;
6053;SDS011;3055;50.886;14.814;2023-08-24T07:44:49;3.70;;;3.00;;
6053;SDS011;3055;50.886;14.814;2023-08-24T07:47:16;4.70;;;3.37;;
6053;SDS011;3055;50.886;14.814;2023-08-24T07:49:43;5.90;;;3.30;;
6053;SDS011;3055;50.886;14.814;2023-08-24T07:52:10;5.53;;;3.40;;
6053;SDS011;3055;50.886;14.814;2023-08-24T07:54:38;5.90;;;3.10;;
6053;SDS011;3055;50.886;14.814;2023-08-24T07:57:05;3.60;;;3.30;;
6053;SDS011;3055;50.886;14.814;2023-08-24T07:59:32;5.63;;;3.30;;
6053;SDS011;3055;50.886;14.814;2023-08-24T08:02:01;5.10;;;3.60;;
6053;SDS011;3055;50.886;14.814;2023-08-24T08:04:28;4.83;;;4.13;;
6053;SDS011;3055;50.886;14.814;2023-08-24T08:06:55;6.27;;;4.23;;
6053;SDS011;3055;50.886;14.814;2023-08-24T08:09:22;8.13;;;3.70;;
6053;SDS011;3055;50.886;14.814;2023-08-24T08:11:49;14.40;;;5.00;;
6053;SDS011;3055;50.886;14.814;2023-08-24T08:14:16;7.03;;;6.27;;
6053;SDS011;3055;50.886;14.814;2023-08-24T08:16:45;5.87;;;4.47;;
6053;SDS011;3055;50.886;14.814;2023-08-24T08:19:13;5.00;;;3.70;;
6053;SDS011;3055;50.886;14.814;2023-08-24T08:21:40;9.13;;;4.70;;
6053;SDS011;3055;50.886;14.814;2023-08-24T08:24:07;6.67;;;4.10;;
6053;SDS011;3055;50.886;14.814;2023-08-24T08:26:36;8.30;;;4.17;;
6053;SDS011;3055;50.886;14.814;2023-08-24T08:29:03;8.27;;;4.50;;
6053;SDS011;3055;50.886;14.814;2023-08-24T08:31:31;6.97;;;4.13;;
6053;SDS011;3055;50.886;14.814;2023-08-24T08:33:58;4.77;;;4.00;;
6053;SDS011;3055;50.886;14.814;2023-08-24T08:36:30;4.33;;;3.30;;
6053;SDS011;3055;50.886;14.814;2023-08-24T08:38:58;3.97;;;3.60;;
6053;SDS011;3055;50.886;14.814;2023-08-24T08:41:26;6.23;;;3.37;;
6053;SDS011;3055;50.886;14.814;2023-08-24T08:43:56;5.27;;;3.43;;
6053;SDS011;3055;50.886;14.814;2023-08-24T08:46:23;3.27;;;2.77;;
6053;SDS011;3055;50.886;14.814;2023-08-24T08:48:51;4.23;;;2.47;;
6053;SDS011;3055;50.886;14.814;2023-08-24T08:51:19;2.30;;;2.10;;
6053;SDS011;3055;50.886;14.814;2023-08-24T08:53:48;5.87;;;2.67;;
6053;SDS011;3055;50.886;14.814;2023-08-24T08:56:16;4.60;;;2.70;;
6053;SDS011;3055;50.886;14.814;2023-08-24T08:58:45;2.43;;;2.07;;
6053;SDS011;3055;50.886;14.814;2023-08-24T09:01:12;2.83;;;2.10;;
6053;SDS011;3055;50.886;14.814;2023-08-24T09:03:40;2.77;;;2.00;;
6053;SDS011;3055;50.886;14.814;2023-08-24T09:06:09;6.63;;;2.20;;
6053;SDS011;3055;50.886;14.814;2023-08-24T09:08:36;3.87;;;2.17;;
6053;SDS011;3055;50.886;14.814;2023-08-24T09:11:06;2.83;;;2.00;;
6053;SDS011;3055;50.886;14.814;2023-08-24T09:13:34;3.23;;;2.40;;
6053;SDS011;3055;50.886;14.814;2023-08-24T09:16:05;4.30;;;2.30;;
6053;SDS011;3055;50.886;14.814;2023-08-24T09:18:34;2.30;;;2.10;;
6053;SDS011;3055;50.886;14.814;2023-08-24T09:21:07;3.67;;;2.23;;
6053;SDS011;3055;50.886;14.814;2023-08-24T09:23:35;3.73;;;1.90;;
6053;SDS011;3055;50.886;14.814;2023-08-24T09:26:04;3.33;;;2.00;;
6053;SDS011;3055;50.886;14.814;2023-08-24T09:28:32;3.43;;;1.90;;
6053;SDS011;3055;50.886;14.814;2023-08-24T09:31:01;3.60;;;2.10;;
6053;SDS011;3055;50.886;14.814;2023-08-24T09:33:31;3.23;;;2.20;;
6053;SDS011;3055;50.886;14.814;2023-08-24T09:35:58;5.50;;;2.27;;
6053;SDS011;3055;50.886;14.814;2023-08-24T09:38:28;3.53;;;2.23;;
6053;SDS011;3055;50.886;14.814;2023-08-24T09:40:56;7.00;;;2.40;;
6053;SDS011;3055;50.886;14.814;2023-08-24T09:43:24;3.33;;;2.20;;
6053;SDS011;3055;50.886;14.814;2023-08-24T09:45:52;2.73;;;2.00;;
6053;SDS011;3055;50.886;14.814;2023-08-24T09:48:20;3.77;;;2.27;;
6053;SDS011;3055;50.886;14.814;2023-08-24T09:50:48;2.60;;;1.97;;
6053;SDS011;3055;50.886;14.814;2023-08-24T09:53:17;2.83;;;2.17;;
6053;SDS011;3055;50.886;14.814;2023-08-24T09:55:48;4.50;;;2.17;;
6053;SDS011;3055;50.886;14.814;2023-08-24T09:58:20;3.27;;;2.33;;
6053;SDS011;3055;50.886;14.814;2023-08-24T10:00:49;3.83;;;2.43;;
6053;SDS011;3055;50.886;14.814;2023-08-24T10:03:18;4.67;;;2.10;;
6053;SDS011;3055;50.886;14.814;2023-08-24T10:05:47;4.43;;;2.30;;
6053;SDS011;3055;50.886;14.814;2023-08-24T10:08:20;3.20;;;2.03;;
6053;SDS011;3055;50.886;14.814;2023-08-24T10:10:50;2.47;;;2.00;;
6053;SDS011;3055;50.886;14.814;2023-08-24T10:13:21;4.23;;;2.57;;
6053;SDS011;3055;50.886;14.814;2023-08-24T10:15:57;3.73;;;2.27;;
6053;SDS011;3055;50.886;14.814;2023-08-24T10:18:26;2.53;;;2.33;;
6053;SDS011;3055;50.886;14.814;2023-08-24T10:20:55;2.93;;;2.10;;
6053;SDS011;3055;50.886;14.814;2023-08-24T10:23:23;3.57;;;2.27;;
6053;SDS011;3055;50.886;14.814;2023-08-24T10:25:53;2.70;;;2.20;;
6053;SDS011;3055;50.886;14.814;2023-08-24T10:28:23;4.17;;;2.10;;
6053;SDS011;3055;50.886;14.814;2023-08-24T10:30:51;4.17;;;2.17;;
6053;SDS011;3055;50.886;14.814;2023-08-24T10:33:21;3.23;;;2.00;;
6053;SDS011;3055;50.886;14.814;2023-08-24T10:35:49;5.13;;;2.07;;
6053;SDS011;3055;50.886;14.814;2023-08-24T10:38:23;2.30;;;1.97;;
6053;SDS011;3055;50.886;14.814;2023-08-24T10:40:51;3.67;;;2.00;;
6053;SDS011;3055;50.886;14.814;2023-08-24T10:43:19;4.03;;;2.43;;
6053;SDS011;3055;50.886;14.814;2023-08-24T10:45:56;3.73;;;1.97;;
6053;SDS011;3055;50.886;14.814;2023-08-24T10:48:26;2.33;;;2.10;;
6053;SDS011;3055;50.886;14.814;2023-08-24T10:53:46;2.73;;;1.90;;
6053;SDS011;3055;50.886;14.814;2023-08-24T10:56:14;4.50;;;2.13;;
6053;SDS011;3055;50.886;14.814;2023-08-24T10:58:42;4.33;;;2.40;;
6053;SDS011;3055;50.886;14.814;2023-08-24T11:01:19;3.10;;;2.10;;
6053;SDS011;3055;50.886;14.814;2023-08-24T11:03:55;4.37;;;1.80;;
6053;SDS011;3055;50.886;14.814;2023-08-24T11:06:23;3.27;;;2.20;;
6053;SDS011;3055;50.886;14.814;2023-08-24T11:09:04;2.80;;;1.95;;
6053;SDS011;3055;50.886;14.814;2023-08-24T11:11:38;3.47;;;2.00;;
6053;SDS011;3055;50.886;14.814;2023-08-24T11:14:13;3.72;;;2.28;;
6053;SDS011;3055;50.886;14.814;2023-08-24T11:16:41;3.50;;;1.88;;
6053;SDS011;3055;50.886;14.814;2023-08-24T11:19:11;2.57;;;2.03;;
6053;SDS011;3055;50.886;14.814;2023-08-24T11:21:39;3.30;;;1.83;;
6053;SDS011;3055;50.886;14.814;2023-08-24T11:24:07;2.47;;;2.10;;
6053;SDS011;3055;50.886;14.814;2023-08-24T11:26:39;1.70;;;1.60;;
6053;SDS011;3055;50.886;14.814;2023-08-24T11:29:07;3.73;;;1.70;;
6053;SDS011;3055;50.886;14.814;2023-08-24T11:31:35;3.35;;;1.90;;
6053;SDS011;3055;50.886;14.814;2023-08-24T11:34:02;4.47;;;2.40;;
6053;SDS011;3055;50.886;14.814;2023-08-24T11:36:31;2.15;;;1.75;;
6053;SDS011;3055;50.886;14.814;2023-08-24T11:39:07;2.23;;;1.90;;
6053;SDS011;3055;50.886;14.814;2023-08-24T11:41:41;3.25;;;2.10;;
6053;SDS011;3055;50.886;14.814;2023-08-24T11:44:09;3.83;;;1.63;;
6053;SDS011;3055;50.886;14.814;2023-08-24T11:46:37;3.78;;;2.28;;
6053;SDS011;3055;50.886;14.814;2023-08-24T11:49:05;2.15;;;1.88;;
6053;SDS011;3055;50.886;14.814;2023-08-24T11:51:37;3.13;;;1.87;;
6053;SDS011;3055;50.886;14.814;2023-08-24T11:54:04;2.45;;;1.90;;
6053;SDS011;3055;50.886;14.814;2023-08-24T11:56:34;2.60;;;2.20;;
6053;SDS011;3055;50.886;14.814;2023-08-24T11:59:06;5.20;;;2.22;;
6053;SDS011;3055;50.886;14.814;2023-08-24T12:01:38;4.03;;;2.40;;
6053;SDS011;3055;50.886;14.814;2023-08-24T12:04:07;3.97;;;2.10;;
6053;SDS011;3055;50.886;14.814;2023-08-24T12:06:34;2.37;;;2.00;;
6053;SDS011;3055;50.886;14.814;2023-08-24T12:09:04;3.83;;;2.10;;
6053;SDS011;3055;50.886;14.814;2023-08-24T12:11:34;3.00;;;2.10;;
6053;SDS011;3055;50.886;14.814;2023-08-24T12:14:02;4.27;;;2.10;;
6053;SDS011;3055;50.886;14.814;2023-08-24T12:16:31;3.03;;;2.50;;
6053;SDS011;3055;50.886;14.814;2023-08-24T12:18:59;3.00;;;1.97;;
6053;SDS011;3055;50.886;14.814;2023-08-24T12:21:28;2.27;;;1.93;;
6053;SDS011;3055;50.886;14.814;2023-08-24T12:23:58;5.30;;;2.40;;
6053;SDS011;3055;50.886;14.814;2023-08-24T12:26:29;4.60;;;1.93;;
6053;SDS011;3055;50.886;14.814;2023-08-24T12:29:00;3.97;;;1.90;;
6053;SDS011;3055;50.886;14.814;2023-08-24T12:31:28;5.37;;;2.20;;
6053;SDS011;3055;50.886;14.814;2023-08-24T12:33:59;2.60;;;2.17;;
6053;SDS011;3055;50.886;14.814;2023-08-24T12:36:28;3.63;;;2.30;;
6053;SDS011;3055;50.886;14.814;2023-08-24T12:38:55;2.63;;;2.13;;
6053;SDS011;3055;50.886;14.814;2023-08-24T12:41:29;2.63;;;2.43;;
6053;SDS011;3055;50.886;14.814;2023-08-24T12:43:56;3.70;;;2.47;;
6053;SDS011;3055;50.886;14.814;2023-08-24T12:46:23;2.73;;;2.27;;
6053;SDS011;3055;50.886;14.814;2023-08-24T12:48:52;2.67;;;2.20;;
6053;SDS011;3055;50.886;14.814;2023-08-24T12:51:19;2.87;;;2.57;;
6053;SDS011;3055;50.886;14.814;2023-08-24T12:53:46;5.83;;;2.60;;
6053;SDS011;3055;50.886;14.814;2023-08-24T12:56:17;3.83;;;2.63;;
6053;SDS011;3055;50.886;14.814;2023-08-24T12:58:44;4.13;;;2.70;;
6053;SDS011;3055;50.886;14.814;2023-08-24T13:01:11;3.00;;;2.57;;
6053;SDS011;3055;50.886;14.814;2023-08-24T13:03:38;6.30;;;2.80;;
6053;SDS011;3055;50.886;14.814;2023-08-24T13:06:05;2.77;;;2.40;;
6053;SDS011;3055;50.886;14.814;2023-08-24T13:08:33;3.03;;;2.40;;
6053;SDS011;3055;50.886;14.814;2023-08-24T13:11:00;6.67;;;3.00;;
6053;SDS011;3055;50.886;14.814;2023-08-24T13:13:29;4.03;;;2.60;;
6053;SDS011;3055;50.886;14.814;2023-08-24T13:15:56;2.80;;;2.30;;
6053;SDS011;3055;50.886;14.814;2023-08-24T13:18:23;2.87;;;2.23;;
6053;SDS011;3055;50.886;14.814;2023-08-24T13:20:51;2.70;;;2.30;;
6053;SDS011;3055;50.886;14.814;2023-08-24T13:23:18;3.43;;;2.30;;
6053;SDS011;3055;50.886;14.814;2023-08-24T13:25:45;3.03;;;2.37;;
6053;SDS011;3055;50.886;14.814;2023-08-24T13:28:12;3.37;;;2.23;;
6053;SDS011;3055;50.886;14.814;2023-08-24T13:30:40;2.70;;;2.40;;
6053;SDS011;3055;50.886;14.814;2023-08-24T13:33:08;3.30;;;2.53;;
6053;SDS011;3055;50.886;14.814;2023-08-24T13:35:35;3.53;;;2.20;;
6053;SDS011;3055;50.886;14.814;2023-08-24T13:38:02;2.50;;;2.30;;
6053;SDS011;3055;50.886;14.814;2023-08-24T13:40:29;3.03;;;2.35;;
6053;SDS011;3055;50.886;14.814;2023-08-24T13:42:56;4.03;;;2.10;;
6053;SDS011;3055;50.886;14.814;2023-08-24T13:45:24;3.05;;;2.20;;
6053;SDS011;3055;50.886;14.814;2023-08-24T13:47:53;2.30;;;1.90;;
6053;SDS011;3055;50.886;14.814;2023-08-24T13:50:20;4.07;;;2.30;;
6053;SDS011;3055;50.886;14.814;2023-08-24T13:52:47;3.33;;;1.97;;
6053;SDS011;3055;50.886;14.814;2023-08-24T13:55:15;4.10;;;2.00;;
6053;SDS011;3055;50.886;14.814;2023-08-24T13:57:42;3.13;;;2.15;;
6053;SDS011;3055;50.886;14.814;2023-08-24T14:00:10;5.85;;;2.08;;
6053;SDS011;3055;50.886;14.814;2023-08-24T14:02:38;4.97;;;2.45;;
6053;SDS011;3055;50.886;14.814;2023-08-24T14:05:07;5.57;;;2.28;;
6053;SDS011;3055;50.886;14.814;2023-08-24T14:07:36;4.32;;;2.85;;
6053;SDS011;3055;50.886;14.814;2023-08-24T14:10:03;2.97;;;2.38;;
6053;SDS011;3055;50.886;14.814;2023-08-24T14:12:31;2.67;;;2.00;;
6053;SDS011;3055;50.886;14.814;2023-08-24T14:14:59;3.72;;;2.17;;
6053;SDS011;3055;50.886;14.814;2023-08-24T14:17:26;5.13;;;2.47;;
6053;SDS011;3055;50.886;14.814;2023-08-24T14:19:53;4.10;;;2.28;;
6053;SDS011;3055;50.886;14.814;2023-08-24T14:22:22;4.47;;;2.17;;
6053;SDS011;3055;50.886;14.814;2023-08-24T14:24:49;3.38;;;2.30;;
6053;SDS011;3055;50.886;14.814;2023-08-24T14:27:17;3.63;;;2.10;;
6053;SDS011;3055;50.886;14.814;2023-08-24T14:29:44;3.38;;;2.10;;
6053;SDS011;3055;50.886;14.814;2023-08-24T14:32:11;4.70;;;2.53;;
6053;SDS011;3055;50.886;14.814;2023-08-24T14:34:38;2.65;;;1.90;;
6053;SDS011;3055;50.886;14.814;2023-08-24T14:37:05;7.15;;;2.42;;
6053;SDS011;3055;50.886;14.814;2023-08-24T14:39:33;3.17;;;2.30;;
6053;SDS011;3055;50.886;14.814;2023-08-24T14:42:01;4.68;;;2.40;;
6053;SDS011;3055;50.886;14.814;2023-08-24T14:44:28;4.65;;;2.53;;
6053;SDS011;3055;50.886;14.814;2023-08-24T14:46:55;3.67;;;2.13;;
6053;SDS011;3055;50.886;14.814;2023-08-24T14:49:22;3.42;;;2.20;;
6053;SDS011;3055;50.886;14.814;2023-08-24T14:51:49;5.55;;;2.55;;
6053;SDS011;3055;50.886;14.814;2023-08-24T14:54:16;3.75;;;2.90;;
6053;SDS011;3055;50.886;14.814;2023-08-24T14:56:45;3.60;;;2.20;;
6053;SDS011;3055;50.886;14.814;2023-08-24T14:59:12;4.63;;;2.67;;
6053;SDS011;3055;50.886;14.814;2023-08-24T15:01:39;4.28;;;2.20;;
6053;SDS011;3055;50.886;14.814;2023-08-24T15:04:06;4.43;;;2.42;;
6053;SDS011;3055;50.886;14.814;2023-08-24T15:06:33;2.70;;;2.50;;
6053;SDS011;3055;50.886;14.814;2023-08-24T15:09:00;3.75;;;2.60;;
6053;SDS011;3055;50.886;14.814;2023-08-24T15:11:29;3.50;;;2.63;;